createdAt,value
2022-11-14T08:04:14.280Z,44.35
2022-11-14T08:07:16.890Z,46.67
2022-11-14T08:25:46.035Z,46.72
2022-11-14T08:28:48.546Z,47.40
2022-11-14T08:46:59.757Z,43.08
2022-11-14T09:01:02.847Z,43.70
2022-11-14T09:04:05.830Z,42.08
2022-11-14T09:07:08.821Z,41.78
2022-11-14T09:10:11.354Z,42.15
2022-11-14T09:18:44.755Z,39.55
2022-11-14T09:21:47.367Z,38.90
2022-11-14T09:24:49.981Z,36.75
2022-11-14T09:33:12.073Z,37.22
2022-11-14T09:36:15.886Z,35.35
2022-11-14T09:47:42.417Z,35.22
2022-11-14T09:50:49.381Z,36.20
2022-11-14T09:53:58.261Z,36.20
2022-11-14T10:02:55.686Z,35.28
2022-11-14T10:06:18.821Z,38.55
2022-11-14T10:09:39.595Z,36.90
2022-11-14T10:12:59.140Z,35.67
2022-11-14T10:16:08.249Z,34.83
2022-11-14T10:19:24.076Z,34.10
2022-11-14T10:22:45.254Z,32.67
2022-11-14T10:25:56.197Z,33.67
2022-11-14T10:29:20.470Z,34.50
2022-11-14T10:32:35.496Z,31.58
2022-11-14T10:35:43.426Z,33.20
2022-11-14T10:38:53.344Z,30.73
2022-11-14T10:42:07.405Z,34.30
2022-11-14T10:45:19.379Z,32.83
2022-11-14T10:48:31.431Z,32.10
2022-11-14T10:51:40.399Z,32.25
2022-11-14T10:54:46.842Z,31.83
2022-11-14T10:57:49.454Z,33.35
2022-11-14T11:00:51.934Z,31.45
2022-11-14T11:03:54.503Z,34.85
2022-11-14T11:07:34.535Z,33.10
2022-11-14T11:11:03.702Z,32.67
2022-11-14T11:14:06.233Z,31.88
2022-11-14T11:17:18.418Z,32.35
2022-11-14T11:20:39.536Z,29.63
2022-11-14T11:23:51.573Z,31.43
2022-11-14T11:27:14.403Z,30.08
2022-11-14T11:30:21.049Z,30.27
2022-11-14T11:33:25.674Z,29.85
2022-11-14T11:36:29.877Z,30.60
2022-11-14T11:39:41.166Z,31.65
2022-11-14T11:46:18.202Z,27.60
2022-11-14T11:49:33.426Z,30.75
2022-11-14T11:52:45.287Z,30.63
2022-11-14T11:55:52.314Z,28.90
2022-11-14T11:58:58.227Z,28.70
2022-11-14T12:02:01.538Z,29.38
2022-11-14T12:05:04.346Z,30.35
2022-11-14T12:08:15.943Z,28.50
2022-11-14T12:11:26.851Z,29.00
2022-11-14T12:14:53.744Z,28.08
2022-11-14T12:18:46.540Z,28.83
2022-11-14T12:22:12.868Z,26.98
2022-11-14T12:25:35.342Z,26.80
2022-11-14T12:28:59.463Z,27.33
2022-11-14T12:32:06.891Z,26.60
2022-11-14T12:35:19.120Z,27.58
2022-11-14T12:38:23.333Z,25.75
2022-11-14T12:41:29.171Z,26.98
2022-11-14T12:44:40.458Z,27.38
2022-11-14T12:48:23.020Z,26.27
2022-11-14T12:51:50.235Z,27.10
2022-11-14T12:54:52.692Z,24.88
2022-11-14T12:58:07.082Z,27.02
2022-11-14T13:01:46.271Z,26.25
2022-11-14T13:05:12.610Z,26.33
2022-11-14T13:08:34.267Z,26.08
2022-11-14T13:11:58.296Z,26.15
2022-11-14T13:15:48.592Z,25.73
2022-11-14T13:19:12.790Z,26.10
2022-11-14T13:22:36.118Z,25.88
2022-11-14T13:25:38.659Z,25.65
2022-11-14T13:28:46.278Z,25.40
2022-11-14T13:31:51.430Z,26.52
2022-11-14T13:35:02.803Z,25.38
2022-11-14T13:38:24.894Z,26.80
2022-11-14T13:41:56.537Z,25.83
2022-11-14T13:45:43.111Z,25.42
2022-11-14T13:49:03.677Z,27.13
2022-11-14T13:52:07.466Z,25.20
2022-11-14T13:55:20.714Z,24.67
2022-11-14T13:58:35.701Z,26.67
2022-11-14T14:01:48.236Z,27.00
2022-11-14T14:05:03.752Z,26.42
2022-11-14T14:08:20.618Z,26.42
2022-11-14T14:11:42.687Z,25.83
2022-11-14T14:15:03.441Z,25.48
2022-11-14T14:18:15.906Z,25.27
2022-11-14T14:21:32.467Z,26.95
2022-11-14T14:24:48.675Z,26.83
2022-11-14T14:28:00.942Z,25.88
2022-11-14T14:31:09.399Z,27.17
2022-11-14T14:34:23.624Z,27.50
2022-11-14T14:37:27.969Z,26.67
2022-11-14T14:40:34.367Z,28.48
2022-11-14T14:43:36.872Z,30.38
2022-11-14T14:46:39.429Z,29.38
2022-11-14T14:49:42.254Z,27.08
2022-11-14T14:52:44.823Z,27.85
2022-11-14T14:55:55.401Z,27.63
2022-11-14T14:58:57.852Z,27.27
2022-11-14T15:02:00.333Z,29.23
2022-11-14T15:05:03.935Z,30.52
2022-11-14T15:08:06.838Z,26.90
2022-11-14T15:11:10.711Z,29.00
2022-11-14T15:14:15.995Z,28.33
2022-11-14T15:17:18.573Z,27.73
2022-11-14T15:20:26.026Z,30.95
2022-11-14T15:23:28.482Z,30.35
2022-11-14T15:26:32.559Z,31.13
2022-11-14T15:29:35.053Z,31.08
2022-11-14T15:32:37.505Z,30.35
2022-11-14T15:35:41.048Z,35.67
2022-11-14T15:38:59.912Z,31.90
2022-11-14T15:42:14.947Z,31.55
2022-11-14T15:45:24.738Z,30.60
2022-11-14T15:48:27.356Z,30.50
2022-11-14T15:51:42.361Z,30.55
2022-11-14T15:54:44.902Z,31.73
2022-11-14T15:58:00.957Z,31.48
2022-11-14T16:01:16.806Z,29.88
2022-11-14T16:04:20.932Z,29.50
2022-11-14T16:07:23.577Z,30.38
2022-11-14T16:10:27.817Z,33.00
2022-11-14T16:13:31.948Z,36.58
2022-11-14T16:16:34.743Z,36.85
2022-11-14T16:19:37.179Z,32.92
2022-11-14T16:22:39.630Z,31.60
2022-11-14T16:25:42.281Z,31.85
2022-11-14T16:28:46.085Z,30.60
2022-11-14T16:31:48.631Z,31.67
2022-11-14T16:34:51.074Z,33.17
2022-11-14T16:37:56.008Z,32.97
2022-11-14T16:41:00.170Z,32.25
2022-11-14T16:44:04.028Z,34.05
2022-11-14T16:47:06.554Z,34.28
2022-11-14T16:50:09.893Z,33.90
2022-11-14T16:53:12.406Z,36.92
